createdAt,value
2022-12-06T00:00:07.550Z,36.03
2022-12-06T00:02:45.711Z,35.97
2022-12-06T00:05:18.642Z,35.75
2022-12-06T00:07:51.455Z,33.83
2022-12-06T00:10:24.411Z,35.30
2022-12-06T00:12:57.157Z,37.03
2022-12-06T00:15:30.123Z,34.05
2022-12-06T00:18:03.337Z,35.08
2022-12-06T00:20:36.102Z,27.67
2022-12-06T00:23:08.829Z,30.95
2022-12-06T00:25:41.510Z,36.05
2022-12-06T00:28:14.230Z,33.30
2022-12-06T00:30:46.992Z,33.83
2022-12-06T00:33:19.730Z,37.80
2022-12-06T00:36:03.339Z,37.00
2022-12-06T00:38:36.919Z,37.55
2022-12-06T00:41:13.741Z,32.83
2022-12-06T00:43:47.092Z,44.35
2022-12-06T00:46:23.060Z,56.47
2022-12-06T00:48:58.022Z,63.60
2022-12-06T00:51:33.418Z,56.65
2022-12-06T00:54:07.580Z,56.17
2022-12-06T00:56:40.374Z,51.00
2022-12-06T00:59:13.244Z,51.13
2022-12-06T01:01:46.239Z,62.22
2022-12-06T01:04:19.026Z,54.28
2022-12-06T01:06:51.900Z,47.75
2022-12-06T01:09:24.689Z,39.65
2022-12-06T01:11:58.962Z,38.85
2022-12-06T01:14:31.690Z,36.90
2022-12-06T01:17:04.511Z,34.10
2022-12-06T01:19:37.656Z,30.38
2022-12-06T01:22:10.346Z,31.90
2022-12-06T01:24:42.970Z,30.70
2022-12-06T01:27:15.658Z,30.98
2022-12-06T01:29:48.226Z,33.25
2022-12-06T01:32:20.907Z,31.98
2022-12-06T01:34:53.833Z,33.22
2022-12-06T01:37:26.685Z,30.80
2022-12-06T01:39:59.657Z,28.48
2022-12-06T01:42:32.488Z,28.52
2022-12-06T01:45:06.055Z,28.55
2022-12-06T01:47:43.056Z,30.40
2022-12-06T01:50:22.363Z,30.05
2022-12-06T01:52:58.370Z,30.60
2022-12-06T01:55:35.268Z,27.35
2022-12-06T01:58:15.965Z,30.70
2022-12-06T02:00:48.739Z,28.88
2022-12-06T02:03:26.097Z,23.75
2022-12-06T02:05:59.887Z,25.17
2022-12-06T02:08:33.442Z,27.23
2022-12-06T02:11:06.471Z,24.17
2022-12-06T02:13:40.127Z,24.75
2022-12-06T02:16:35.075Z,23.80
2022-12-06T02:19:27.255Z,27.47
2022-12-06T02:22:24.786Z,23.20
2022-12-06T02:24:58.156Z,24.83
2022-12-06T02:27:49.886Z,23.50
2022-12-06T02:30:41.599Z,22.70
2022-12-06T02:33:23.935Z,19.08
2022-12-06T02:36:08.137Z,24.33
2022-12-06T02:38:58.192Z,21.95
2022-12-06T02:41:38.479Z,22.92
2022-12-06T02:44:21.183Z,23.92
2022-12-06T02:46:56.747Z,21.67
2022-12-06T02:49:34.405Z,24.40
2022-12-06T02:52:07.222Z,22.15
2022-12-06T02:54:41.684Z,21.95
2022-12-06T02:57:14.657Z,18.73
2022-12-06T02:59:55.424Z,22.38
2022-12-06T03:02:28.105Z,19.13
2022-12-06T03:05:08.441Z,19.00
2022-12-06T03:07:45.102Z,18.55
2022-12-06T03:10:19.676Z,18.23
2022-12-06T03:13:01.021Z,22.52
2022-12-06T03:15:55.299Z,18.00
2022-12-06T03:18:35.073Z,19.48
2022-12-06T03:21:14.031Z,19.73
2022-12-06T03:23:50.764Z,23.27
2022-12-06T03:26:30.046Z,19.48
2022-12-06T03:29:05.587Z,18.83
2022-12-06T03:31:40.759Z,19.60
2022-12-06T03:34:15.490Z,15.98
2022-12-06T03:36:51.113Z,16.50
2022-12-06T03:39:33.829Z,19.42
2022-12-06T03:42:06.935Z,16.77
2022-12-06T03:44:39.681Z,19.10
2022-12-06T03:47:17.602Z,20.33
2022-12-06T03:49:59.212Z,17.98
2022-12-06T03:52:33.839Z,19.63
2022-12-06T03:55:07.495Z,14.85
2022-12-06T03:57:40.039Z,18.83
2022-12-06T04:00:13.595Z,16.48
2022-12-06T04:02:46.330Z,17.63
2022-12-06T04:05:19.121Z,18.00
2022-12-06T04:07:51.913Z,18.92
2022-12-06T04:10:24.734Z,17.45
2022-12-06T04:13:07.125Z,18.02
2022-12-06T04:15:40.436Z,19.75
2022-12-06T04:18:14.659Z,18.23
2022-12-06T04:21:04.247Z,12.27
2022-12-06T04:23:39.480Z,15.93
2022-12-06T04:26:15.600Z,16.38
2022-12-06T04:29:04.868Z,16.45
2022-12-06T04:31:55.622Z,15.75
2022-12-06T04:34:43.740Z,17.30
2022-12-06T04:37:32.094Z,17.67
2022-12-06T04:40:05.499Z,21.20
2022-12-06T04:42:54.830Z,26.52
2022-12-06T04:45:27.490Z,23.17
2022-12-06T04:48:00.131Z,20.40
2022-12-06T04:50:32.774Z,20.25
2022-12-06T04:53:07.105Z,21.13
2022-12-06T04:55:39.657Z,17.75
2022-12-06T04:58:12.328Z,16.23
2022-12-06T05:00:45.631Z,17.85
2022-12-06T05:03:19.211Z,18.48
2022-12-06T05:05:52.555Z,19.13
2022-12-06T05:08:25.262Z,17.95
2022-12-06T05:10:58.101Z,20.33
2022-12-06T05:13:30.947Z,17.23
2022-12-06T05:16:06.414Z,17.20
2022-12-06T05:18:39.272Z,14.95
2022-12-06T05:21:16.304Z,18.98
2022-12-06T05:23:49.489Z,17.30
2022-12-06T05:26:24.646Z,16.75
2022-12-06T05:31:30.240Z,16.08
2022-12-06T05:34:03.050Z,16.90
2022-12-06T05:36:35.597Z,20.70
2022-12-06T05:39:08.327Z,16.65
2022-12-06T05:41:41.103Z,28.55
2022-12-06T05:44:13.887Z,23.38
2022-12-06T05:46:46.598Z,20.67
2022-12-06T05:49:19.466Z,21.73
2022-12-06T05:51:52.154Z,18.13
2022-12-06T05:54:24.841Z,16.75
2022-12-06T05:56:57.520Z,18.45
2022-12-06T05:59:30.403Z,17.52
2022-12-06T06:02:02.992Z,17.45
2022-12-06T06:04:35.901Z,16.38
2022-12-06T06:07:08.467Z,18.70
2022-12-06T06:09:41.268Z,17.73
2022-12-06T06:12:14.403Z,18.35
2022-12-06T06:14:47.259Z,18.25
2022-12-06T06:17:19.970Z,19.08
2022-12-06T06:19:52.723Z,17.17
2022-12-06T06:22:25.354Z,16.08
2022-12-06T06:24:59.363Z,19.58
2022-12-06T06:27:37.259Z,26.20
2022-12-06T06:30:12.623Z,20.00
2022-12-06T06:32:45.271Z,22.92
2022-12-06T06:35:18.021Z,25.85
2022-12-06T06:37:50.682Z,18.38
2022-12-06T06:40:23.562Z,19.13
2022-12-06T06:42:57.306Z,17.48
2022-12-06T06:45:30.127Z,17.50
2022-12-06T06:48:06.145Z,15.30
2022-12-06T06:50:39.323Z,17.50
2022-12-06T06:53:12.245Z,33.13
2022-12-06T06:55:45.815Z,56.08
2022-12-06T06:58:18.466Z,22.55
2022-12-06T07:00:56.217Z,50.95
2022-12-06T07:03:30.304Z,39.25
2022-12-06T07:06:07.764Z,52.92
2022-12-06T07:08:41.968Z,28.15
2022-12-06T07:11:15.650Z,31.40
2022-12-06T07:13:52.680Z,19.00
2022-12-06T07:16:26.082Z,24.27
2022-12-06T07:18:58.748Z,23.85
2022-12-06T07:21:31.709Z,16.48
2022-12-06T07:24:04.897Z,13.98
2022-12-06T07:26:37.559Z,20.27
2022-12-06T07:29:10.332Z,16.98
2022-12-06T07:31:43.125Z,14.20
2022-12-06T07:34:16.817Z,15.98
2022-12-06T07:36:49.522Z,16.77
2022-12-06T07:39:22.315Z,17.73
2022-12-06T07:42:10.198Z,20.45
2022-12-06T07:45:02.669Z,20.10
2022-12-06T07:47:38.689Z,16.55
2022-12-06T07:50:18.440Z,17.27
2022-12-06T07:52:52.061Z,22.38
2022-12-06T07:55:24.969Z,20.52
2022-12-06T07:57:57.787Z,24.13
2022-12-06T08:00:30.752Z,15.45
2022-12-06T08:03:03.916Z,22.55
2022-12-06T08:05:36.683Z,57.60
2022-12-06T08:08:09.501Z,33.10
2022-12-06T08:10:42.218Z,38.10
2022-12-06T08:13:15.027Z,39.13
2022-12-06T08:15:47.907Z,40.60
2022-12-06T08:18:20.691Z,43.90
2022-12-06T08:20:53.544Z,44.70
2022-12-06T08:23:33.661Z,37.13
2022-12-06T08:26:10.518Z,31.95
2022-12-06T08:28:43.811Z,31.92
2022-12-06T08:31:21.610Z,29.23
2022-12-06T08:33:54.428Z,24.67
2022-12-06T08:36:29.050Z,24.42
2022-12-06T08:39:01.792Z,21.23
2022-12-06T08:41:50.862Z,23.75
2022-12-06T08:44:24.167Z,23.55
2022-12-06T08:46:58.990Z,31.40
2022-12-06T08:49:32.059Z,23.13
2022-12-06T08:52:05.005Z,16.65
2022-12-06T08:54:38.398Z,15.43
2022-12-06T08:57:11.097Z,13.82
2022-12-06T08:59:44.146Z,12.70
2022-12-06T09:02:16.819Z,12.25
2022-12-06T09:04:52.113Z,12.07
2022-12-06T09:07:26.767Z,14.63
2022-12-06T09:10:00.167Z,12.63
2022-12-06T09:12:33.234Z,13.05
2022-12-06T09:15:06.787Z,11.18
2022-12-06T09:17:39.376Z,13.45
2022-12-06T09:20:19.142Z,14.52
2022-12-06T09:22:51.772Z,12.75
2022-12-06T09:25:24.485Z,12.55
2022-12-06T09:27:58.310Z,10.13
2022-12-06T09:30:31.396Z,11.32
2022-12-06T09:33:04.058Z,11.13
2022-12-06T09:35:37.285Z,8.75
2022-12-06T09:38:10.031Z,7.90
2022-12-06T09:41:13.700Z,8.98
2022-12-06T09:44:07.198Z,7.65
2022-12-06T09:46:43.626Z,9.63
2022-12-06T09:49:42.978Z,8.15
2022-12-06T09:52:30.525Z,7.88
2022-12-06T09:55:11.207Z,11.93
2022-12-06T09:58:00.850Z,7.63
2022-12-06T10:00:45.093Z,7.60
2022-12-06T10:03:40.429Z,7.93
2022-12-06T10:06:16.815Z,6.70
2022-12-06T10:09:07.000Z,7.25
2022-12-06T10:11:55.276Z,6.60
2022-12-06T10:14:33.244Z,13.32
2022-12-06T10:17:09.804Z,6.95
2022-12-06T10:20:00.867Z,8.50
2022-12-06T10:22:49.278Z,8.15
2022-12-06T10:25:31.635Z,7.00
2022-12-06T10:28:13.936Z,10.85
2022-12-06T10:30:53.799Z,9.82
2022-12-06T10:33:30.291Z,7.20
2022-12-06T10:36:06.559Z,7.40
2022-12-06T10:38:49.484Z,9.68
2022-12-06T10:41:33.621Z,8.68
2022-12-06T10:44:20.611Z,7.95
2022-12-06T10:47:05.702Z,7.35
2022-12-06T10:49:54.101Z,8.68
2022-12-06T10:52:42.580Z,7.00
2022-12-06T10:55:32.619Z,8.20
2022-12-06T10:58:35.745Z,7.25
2022-12-06T11:01:21.674Z,8.77
2022-12-06T11:04:21.532Z,7.35
2022-12-06T11:06:59.317Z,8.30
2022-12-06T11:09:38.385Z,7.13
2022-12-06T11:12:31.545Z,7.30
2022-12-06T11:15:13.532Z,6.82
2022-12-06T11:17:58.020Z,7.50
2022-12-06T11:20:45.152Z,10.02
2022-12-06T11:23:26.388Z,13.05
2022-12-06T11:26:04.076Z,10.93
2022-12-06T11:28:42.308Z,7.57
2022-12-06T11:31:26.601Z,16.73
2022-12-06T11:34:00.479Z,13.63
2022-12-06T11:36:33.822Z,11.98
2022-12-06T11:39:09.487Z,10.88
2022-12-06T11:41:46.272Z,13.00
2022-12-06T11:44:26.855Z,12.02
2022-12-06T11:47:03.559Z,15.50
2022-12-06T11:49:42.236Z,15.43
2022-12-06T11:52:25.563Z,16.33
2022-12-06T11:55:04.557Z,13.80
2022-12-06T11:57:46.119Z,15.38
2022-12-06T12:00:25.747Z,16.23
2022-12-06T12:02:58.794Z,16.02
2022-12-06T12:05:36.656Z,16.73
2022-12-06T12:08:20.367Z,16.02
2022-12-06T12:11:03.056Z,16.10
2022-12-06T12:13:51.225Z,16.42
2022-12-06T12:16:37.589Z,20.73
2022-12-06T12:19:41.525Z,17.63
2022-12-06T12:22:30.150Z,18.83
2022-12-06T12:25:22.727Z,13.63
2022-12-06T12:27:58.201Z,15.27
2022-12-06T12:30:43.348Z,14.75
2022-12-06T12:33:20.055Z,16.53
2022-12-06T12:35:56.230Z,14.55
2022-12-06T12:38:45.330Z,15.75
2022-12-06T12:41:30.003Z,17.63
2022-12-06T12:44:36.473Z,18.05
2022-12-06T12:47:17.678Z,15.65
2022-12-06T12:50:08.260Z,19.23
2022-12-06T12:52:42.734Z,19.92
2022-12-06T12:55:16.948Z,22.52
2022-12-06T12:57:53.658Z,20.73
2022-12-06T13:00:31.103Z,18.95
2022-12-06T13:03:34.987Z,18.67
2022-12-06T13:06:06.449Z,22.20
2022-12-06T13:08:40.083Z,21.02
2022-12-06T13:11:13.016Z,20.90
2022-12-06T13:13:50.188Z,20.10
2022-12-06T13:16:32.988Z,22.05
2022-12-06T13:19:05.904Z,24.83
2022-12-06T13:21:45.871Z,22.88
2022-12-06T13:24:24.477Z,23.92
2022-12-06T13:27:12.152Z,20.25
2022-12-06T13:29:54.720Z,19.90
2022-12-06T13:32:36.692Z,19.17
2022-12-06T13:35:20.804Z,19.33
2022-12-06T13:37:57.970Z,20.10
2022-12-06T13:40:34.710Z,22.90
2022-12-06T13:43:27.777Z,24.50
2022-12-06T13:46:10.196Z,25.48
2022-12-06T13:48:59.744Z,27.85
2022-12-06T13:51:33.212Z,29.33
2022-12-06T13:54:06.907Z,31.27
2022-12-06T13:56:41.519Z,28.70
2022-12-06T13:59:15.451Z,29.33
2022-12-06T14:01:50.752Z,27.35
2022-12-06T14:09:45.196Z,22.85
2022-12-06T14:12:22.995Z,23.83
2022-12-06T14:15:06.300Z,22.90
2022-12-06T14:20:38.320Z,29.42
2022-12-06T14:26:30.051Z,31.80
2022-12-06T14:29:03.194Z,32.85
2022-12-06T14:31:40.087Z,33.20
2022-12-06T14:34:27.211Z,32.10
2022-12-06T14:37:01.521Z,32.25
2022-12-06T14:39:34.731Z,30.42
2022-12-06T14:42:32.916Z,33.05
2022-12-06T14:45:13.578Z,33.45
2022-12-06T14:47:46.408Z,35.20
2022-12-06T14:50:26.330Z,32.35
2022-12-06T14:53:02.306Z,30.63
2022-12-06T14:55:38.076Z,60.00
2022-12-06T14:58:22.744Z,55.17
2022-12-06T15:00:57.456Z,33.90
2022-12-06T15:03:36.245Z,33.55
2022-12-06T15:06:19.668Z,32.20
2022-12-06T15:09:12.248Z,31.77
2022-12-06T15:12:00.812Z,34.15
2022-12-06T15:14:41.356Z,34.15
2022-12-06T15:17:14.765Z,32.70
2022-12-06T15:19:51.663Z,38.50
2022-12-06T15:22:28.280Z,46.28
2022-12-06T15:25:01.212Z,41.97
2022-12-06T15:27:34.521Z,39.03
2022-12-06T15:30:09.581Z,36.00
2022-12-06T15:32:42.476Z,35.58
2022-12-06T15:35:19.127Z,34.95
2022-12-06T15:37:51.975Z,34.08
2022-12-06T15:40:24.648Z,36.63
2022-12-06T15:43:02.176Z,36.40
2022-12-06T15:45:36.180Z,37.22
2022-12-06T15:48:09.949Z,41.28
2022-12-06T15:50:45.851Z,41.08
2022-12-06T15:53:20.922Z,38.83
2022-12-06T15:55:54.245Z,44.15
2022-12-06T15:58:27.531Z,67.65
2022-12-06T16:01:00.718Z,164.77
2022-12-06T16:03:33.557Z,99.50
2022-12-06T16:06:10.496Z,65.38
2022-12-06T16:08:44.224Z,51.50
2022-12-06T16:11:20.242Z,42.60
2022-12-06T16:13:53.375Z,62.15
2022-12-06T16:16:26.351Z,42.22
2022-12-06T16:18:59.192Z,61.63
2022-12-06T16:21:34.355Z,81.93
2022-12-06T16:26:48.051Z,69.18
2022-12-06T16:29:25.350Z,63.35
2022-12-06T16:31:58.290Z,58.60
2022-12-06T16:34:31.177Z,69.38
2022-12-06T16:37:07.294Z,62.67
2022-12-06T16:39:40.128Z,62.45
2022-12-06T16:42:12.720Z,87.95
2022-12-06T16:44:52.590Z,41.42
2022-12-06T16:49:56.566Z,36.78
2022-12-06T16:52:30.534Z,44.40
2022-12-06T16:55:03.995Z,36.92
2022-12-06T16:57:37.068Z,36.22
2022-12-06T17:00:13.092Z,33.40
2022-12-06T17:02:45.823Z,37.80
2022-12-06T17:05:23.255Z,38.47
2022-12-06T17:07:56.678Z,33.35
2022-12-06T17:10:29.494Z,32.92
2022-12-06T17:13:02.677Z,37.00
2022-12-06T17:15:35.521Z,46.92
2022-12-06T17:18:08.484Z,36.83
2022-12-06T17:20:41.257Z,40.25
2022-12-06T17:23:15.722Z,34.85
2022-12-06T17:25:58.121Z,26.88
2022-12-06T17:28:30.784Z,31.90
2022-12-06T17:31:08.689Z,29.63
2022-12-06T17:33:41.523Z,30.33
2022-12-06T17:36:17.587Z,27.45
2022-12-06T17:38:54.263Z,35.60
2022-12-06T17:41:50.077Z,21.30
2022-12-06T17:44:24.761Z,37.78
2022-12-06T17:46:57.629Z,30.90
2022-12-06T17:49:30.406Z,34.45
2022-12-06T17:52:03.080Z,26.45
2022-12-06T17:54:35.736Z,29.77
2022-12-06T17:57:12.657Z,28.52
2022-12-06T17:59:47.939Z,29.23
2022-12-06T18:02:26.317Z,35.08
2022-12-06T18:04:59.757Z,36.83
2022-12-06T18:07:33.508Z,42.90
2022-12-06T18:10:07.211Z,42.72
2022-12-06T18:12:39.927Z,34.88
2022-12-06T18:15:32.938Z,28.60
2022-12-06T18:18:06.323Z,30.63
2022-12-06T18:20:40.135Z,30.08
2022-12-06T18:23:12.934Z,32.33
2022-12-06T18:25:46.083Z,38.83
2022-12-06T18:28:19.825Z,36.88
2022-12-06T18:30:52.618Z,33.42
2022-12-06T18:33:29.727Z,28.30
2022-12-06T18:36:05.496Z,28.13
2022-12-06T18:38:38.253Z,27.75
2022-12-06T18:41:17.045Z,26.33
2022-12-06T18:43:50.156Z,27.92
2022-12-06T18:46:24.957Z,27.95
2022-12-06T18:48:59.627Z,26.85
2022-12-06T18:51:34.434Z,31.00
2022-12-06T18:54:08.379Z,34.33
2022-12-06T18:56:42.673Z,26.65
2022-12-06T18:59:15.408Z,26.10
2022-12-06T19:01:48.226Z,25.10
2022-12-06T19:04:20.971Z,28.23
2022-12-06T19:06:54.736Z,31.77
2022-12-06T19:09:27.595Z,25.88
2022-12-06T19:12:00.242Z,33.50
2022-12-06T19:14:33.194Z,25.60
2022-12-06T19:17:07.909Z,24.25
2022-12-06T19:19:41.046Z,23.48
2022-12-06T19:22:13.744Z,22.85
2022-12-06T19:24:46.928Z,24.52
2022-12-06T19:27:20.746Z,23.02
2022-12-06T19:29:54.328Z,23.38
2022-12-06T19:32:27.838Z,26.50
2022-12-06T19:35:08.157Z,21.17
2022-12-06T19:37:41.993Z,27.25
2022-12-06T19:40:15.031Z,23.15
2022-12-06T19:43:03.023Z,23.17
2022-12-06T19:45:35.888Z,24.83
2022-12-06T19:48:08.566Z,20.40
2022-12-06T19:50:41.555Z,22.67
2022-12-06T19:53:14.284Z,23.35
2022-12-06T19:55:47.391Z,21.65
2022-12-06T19:58:21.164Z,22.98
2022-12-06T20:00:54.211Z,24.15
2022-12-06T20:03:28.260Z,22.02
2022-12-06T20:06:07.025Z,22.27
2022-12-06T20:08:39.964Z,24.27
2022-12-06T20:11:29.926Z,21.05
2022-12-06T20:14:07.147Z,21.67
2022-12-06T20:16:40.704Z,25.83
2022-12-06T20:19:16.444Z,25.17
2022-12-06T20:21:49.609Z,23.00
2022-12-06T20:24:23.395Z,32.35
2022-12-06T20:26:56.541Z,28.10
2022-12-06T20:29:30.295Z,23.27
2022-12-06T20:32:03.843Z,24.77
2022-12-06T20:34:36.775Z,22.63
2022-12-06T20:37:09.702Z,27.02
2022-12-06T20:39:42.595Z,24.25
2022-12-06T20:42:15.298Z,25.45
2022-12-06T20:44:47.953Z,30.05
2022-12-06T20:47:21.247Z,33.85
2022-12-06T20:49:53.974Z,28.13
2022-12-06T20:52:26.753Z,25.38
2022-12-06T20:54:59.431Z,29.42
2022-12-06T20:57:32.152Z,35.83
2022-12-06T21:00:07.878Z,37.13
2022-12-06T21:02:40.960Z,32.13
2022-12-06T21:05:13.705Z,30.40
2022-12-06T21:07:46.524Z,41.05
2022-12-06T21:10:19.269Z,43.47
2022-12-06T21:12:52.024Z,64.20
2022-12-06T21:15:24.714Z,44.88
2022-12-06T21:17:57.511Z,44.58
2022-12-06T21:20:30.235Z,44.70
2022-12-06T21:23:02.852Z,44.03
2022-12-06T21:25:38.258Z,42.20
2022-12-06T21:28:11.154Z,44.58
2022-12-06T21:30:49.755Z,38.58
2022-12-06T21:33:24.208Z,37.10
2022-12-06T21:36:01.762Z,39.60
2022-12-06T21:38:34.903Z,41.03
2022-12-06T21:41:11.072Z,39.47
2022-12-06T21:43:43.971Z,31.98
2022-12-06T21:46:20.312Z,31.30
2022-12-06T21:48:56.420Z,35.95
2022-12-06T21:51:31.627Z,31.50
2022-12-06T21:56:38.540Z,33.85
2022-12-06T21:59:11.338Z,34.40
2022-12-06T22:01:44.056Z,37.88
2022-12-06T22:04:16.788Z,38.72
2022-12-06T22:06:50.755Z,33.53
2022-12-06T22:09:23.552Z,38.45
2022-12-06T22:11:56.414Z,38.72
2022-12-06T22:14:29.220Z,39.00
2022-12-06T22:17:01.814Z,40.33
2022-12-06T22:19:35.767Z,39.38
2022-12-06T22:22:08.515Z,39.75
2022-12-06T22:24:41.266Z,39.00
2022-12-06T22:27:14.003Z,39.03
2022-12-06T22:29:48.155Z,41.65
2022-12-06T22:32:20.974Z,37.42
2022-12-06T22:34:53.750Z,34.97
2022-12-06T22:37:28.642Z,36.13
2022-12-06T22:42:35.142Z,41.25
2022-12-06T22:45:09.197Z,38.08
2022-12-06T22:47:41.762Z,38.35
2022-12-06T22:50:14.468Z,39.10
2022-12-06T22:52:48.033Z,39.25
2022-12-06T22:55:20.817Z,39.35
2022-12-06T22:57:53.932Z,38.45
2022-12-06T23:00:26.784Z,39.72
2022-12-06T23:02:59.667Z,40.65
2022-12-06T23:05:32.404Z,38.42
2022-12-06T23:08:05.431Z,40.25
2022-12-06T23:10:38.308Z,38.40
2022-12-06T23:13:10.987Z,39.13
2022-12-06T23:15:43.951Z,37.67
2022-12-06T23:18:18.881Z,42.60
2022-12-06T23:21:01.655Z,39.05
2022-12-06T23:23:35.080Z,41.00
2022-12-06T23:26:10.999Z,40.42
2022-12-06T23:28:43.888Z,42.90
2022-12-06T23:31:21.076Z,40.30
2022-12-06T23:33:57.586Z,46.80
2022-12-06T23:36:33.077Z,46.53
2022-12-06T23:39:06.703Z,41.60
2022-12-06T23:41:39.807Z,40.50
2022-12-06T23:44:13.641Z,37.97
2022-12-06T23:46:46.436Z,42.45
2022-12-06T23:49:21.355Z,38.97
2022-12-06T23:51:54.044Z,40.53
2022-12-06T23:54:26.747Z,41.22
2022-12-06T23:56:59.500Z,40.85
2022-12-06T23:59:32.410Z,42.95
